sensor_id;sensor_type;location;lat;lon;timestamp;temperature;humidity
4279;DHT22;2153;47.744;10.580;2023-07-30T00:00:57;17.30;99.90
4279;DHT22;2153;47.744;10.580;2023-07-30T00:03:24;17.30;99.90
4279;DHT22;2153;47.744;10.580;2023-07-30T00:05:54;17.30;99.90
4279;DHT22;2153;47.744;10.580;2023-07-30T00:08:23;17.30;99.90
4279;DHT22;2153;47.744;10.580;2023-07-30T00:10:50;17.30;99.90
4279;DHT22;2153;47.744;10.580;2023-07-30T00:13:16;17.30;99.90
4279;DHT22;2153;47.744;10.580;2023-07-30T00:15:45;17.20;99.90
4279;DHT22;2153;47.744;10.580;2023-07-30T00:18:12;17.20;99.90
4279;DHT22;2153;47.744;10.580;2023-07-30T00:20:39;17.10;99.90
4279;DHT22;2153;47.744;10.580;2023-07-30T00:23:06;17.10;99.90
4279;DHT22;2153;47.744;10.580;2023-07-30T00:25:34;17.00;99.90
4279;DHT22;2153;47.744;10.580;2023-07-30T00:28:01;16.90;99.90
4279;DHT22;2153;47.744;10.580;2023-07-30T00:30:27;16.90;99.90
4279;DHT22;2153;47.744;10.580;2023-07-30T00:32:54;16.90;99.90
4279;DHT22;2153;47.744;10.580;2023-07-30T00:35:21;16.90;99.90
4279;DHT22;2153;47.744;10.580;2023-07-30T00:37:47;17.00;99.90
4279;DHT22;2153;47.744;10.580;2023-07-30T00:40:14;17.00;99.90
4279;DHT22;2153;47.744;10.580;2023-07-30T00:42:42;16.90;99.90
4279;DHT22;2153;47.744;10.580;2023-07-30T00:45:10;16.90;99.90
4279;DHT22;2153;47.744;10.580;2023-07-30T00:47:37;16.90;99.90
4279;DHT22;2153;47.744;10.580;2023-07-30T00:50:05;16.90;99.90
4279;DHT22;2153;47.744;10.580;2023-07-30T00:52:32;16.90;99.90
4279;DHT22;2153;47.744;10.580;2023-07-30T00:54:59;16.90;99.90
4279;DHT22;2153;47.744;10.580;2023-07-30T00:57:28;16.90;99.90
4279;DHT22;2153;47.744;10.580;2023-07-30T00:59:57;16.80;99.90
4279;DHT22;2153;47.744;10.580;2023-07-30T01:02:23;16.80;99.90
4279;DHT22;2153;47.744;10.580;2023-07-30T01:04:50;16.80;99.90
4279;DHT22;2153;47.744;10.580;2023-07-30T01:07:18;16.70;99.90
4279;DHT22;2153;47.744;10.580;2023-07-30T01:09:45;16.70;99.90
4279;DHT22;2153;47.744;10.580;2023-07-30T01:12:11;16.70;99.90
4279;DHT22;2153;47.744;10.580;2023-07-30T01:14:39;16.70;99.90
4279;DHT22;2153;47.744;10.580;2023-07-30T01:17:08;16.70;99.90
4279;DHT22;2153;47.744;10.580;2023-07-30T01:19:34;16.80;99.90
4279;DHT22;2153;47.744;10.580;2023-07-30T01:22:03;17.00;99.90
4279;DHT22;2153;47.744;10.580;2023-07-30T01:24:29;17.00;99.90
4279;DHT22;2153;47.744;10.580;2023-07-30T01:27:00;17.00;99.90
4279;DHT22;2153;47.744;10.580;2023-07-30T01:29:31;17.00;99.90
4279;DHT22;2153;47.744;10.580;2023-07-30T01:32:04;17.00;99.90
4279;DHT22;2153;47.744;10.580;2023-07-30T01:34:34;16.90;99.90
4279;DHT22;2153;47.744;10.580;2023-07-30T01:37:03;16.90;99.90
4279;DHT22;2153;47.744;10.580;2023-07-30T01:39:32;16.90;99.90
4279;DHT22;2153;47.744;10.580;2023-07-30T01:42:00;16.90;99.90
4279;DHT22;2153;47.744;10.580;2023-07-30T01:44:26;16.90;99.90
4279;DHT22;2153;47.744;10.580;2023-07-30T01:46:53;16.90;99.90
4279;DHT22;2153;47.744;10.580;2023-07-30T01:49:20;16.90;99.90
4279;DHT22;2153;47.744;10.580;2023-07-30T01:51:46;17.00;99.90
4279;DHT22;2153;47.744;10.580;2023-07-30T01:54:14;17.00;99.90
4279;DHT22;2153;47.744;10.580;2023-07-30T01:56:41;17.00;99.90
4279;DHT22;2153;47.744;10.580;2023-07-30T01:59:08;17.00;99.90
4279;DHT22;2153;47.744;10.580;2023-07-30T02:01:35;17.00;99.90
4279;DHT22;2153;47.744;10.580;2023-07-30T02:04:01;16.90;99.90
4279;DHT22;2153;47.744;10.580;2023-07-30T02:06:28;16.90;99.90
4279;DHT22;2153;47.744;10.580;2023-07-30T02:08:55;16.90;99.90
4279;DHT22;2153;47.744;10.580;2023-07-30T02:11:23;16.80;99.90
4279;DHT22;2153;47.744;10.580;2023-07-30T02:13:49;16.80;99.90
4279;DHT22;2153;47.744;10.580;2023-07-30T02:16:16;16.80;99.90
4279;DHT22;2153;47.744;10.580;2023-07-30T02:18:43;16.70;99.90
4279;DHT22;2153;47.744;10.580;2023-07-30T02:21:09;16.70;99.90
4279;DHT22;2153;47.744;10.580;2023-07-30T02:23:35;16.60;99.90
4279;DHT22;2153;47.744;10.580;2023-07-30T02:26:02;16.60;99.90
4279;DHT22;2153;47.744;10.580;2023-07-30T02:28:30;16.70;99.90
4279;DHT22;2153;47.744;10.580;2023-07-30T02:30:57;16.70;99.90
4279;DHT22;2153;47.744;10.580;2023-07-30T02:33:23;16.70;99.90
4279;DHT22;2153;47.744;10.580;2023-07-30T02:35:50;16.70;99.90
4279;DHT22;2153;47.744;10.580;2023-07-30T02:38:17;16.70;99.90
4279;DHT22;2153;47.744;10.580;2023-07-30T02:40:44;16.70;99.90
4279;DHT22;2153;47.744;10.580;2023-07-30T02:43:10;16.70;99.90
4279;DHT22;2153;47.744;10.580;2023-07-30T02:45:39;16.70;99.90
4279;DHT22;2153;47.744;10.580;2023-07-30T02:48:05;16.60;99.90
4279;DHT22;2153;47.744;10.580;2023-07-30T02:50:32;16.60;99.90
4279;DHT22;2153;47.744;10.580;2023-07-30T02:52:59;16.50;99.90
4279;DHT22;2153;47.744;10.580;2023-07-30T02:55:25;16.50;99.90
4279;DHT22;2153;47.744;10.580;2023-07-30T02:57:52;16.50;99.90
4279;DHT22;2153;47.744;10.580;2023-07-30T03:00:19;16.50;99.90
4279;DHT22;2153;47.744;10.580;2023-07-30T03:02:47;16.50;99.90
4279;DHT22;2153;47.744;10.580;2023-07-30T03:05:14;16.50;99.90
4279;DHT22;2153;47.744;10.580;2023-07-30T03:07:41;16.40;99.90
4279;DHT22;2153;47.744;10.580;2023-07-30T03:10:08;16.40;99.90
4279;DHT22;2153;47.744;10.580;2023-07-30T03:12:35;16.40;99.90
4279;DHT22;2153;47.744;10.580;2023-07-30T03:15:01;16.40;99.90
4279;DHT22;2153;47.744;10.580;2023-07-30T03:17:28;16.30;99.90
4279;DHT22;2153;47.744;10.580;2023-07-30T03:19:56;16.30;99.90
4279;DHT22;2153;47.744;10.580;2023-07-30T03:22:23;16.20;99.90
4279;DHT22;2153;47.744;10.580;2023-07-30T03:24:50;16.10;99.90
4279;DHT22;2153;47.744;10.580;2023-07-30T03:27:16;16.10;99.90
4279;DHT22;2153;47.744;10.580;2023-07-30T03:29:43;16.10;99.90
4279;DHT22;2153;47.744;10.580;2023-07-30T03:32:10;16.10;99.90
4279;DHT22;2153;47.744;10.580;2023-07-30T03:34:36;16.10;99.90
4279;DHT22;2153;47.744;10.580;2023-07-30T03:37:05;16.10;99.90
4279;DHT22;2153;47.744;10.580;2023-07-30T03:39:31;16.10;99.90
4279;DHT22;2153;47.744;10.580;2023-07-30T03:41:58;16.10;99.90
4279;DHT22;2153;47.744;10.580;2023-07-30T03:44:25;16.00;99.90
4279;DHT22;2153;47.744;10.580;2023-07-30T03:46:51;16.00;99.90
4279;DHT22;2153;47.744;10.580;2023-07-30T03:49:18;16.10;99.90
4279;DHT22;2153;47.744;10.580;2023-07-30T03:51:45;16.00;99.90
4279;DHT22;2153;47.744;10.580;2023-07-30T03:54:13;16.00;99.90
4279;DHT22;2153;47.744;10.580;2023-07-30T03:56:40;15.90;99.90
4279;DHT22;2153;47.744;10.580;2023-07-30T03:59:06;15.90;99.90
4279;DHT22;2153;47.744;10.580;2023-07-30T04:01:33;15.90;99.90
4279;DHT22;2153;47.744;10.580;2023-07-30T04:04:00;15.80;99.90
4279;DHT22;2153;47.744;10.580;2023-07-30T04:06:27;15.70;99.90
4279;DHT22;2153;47.744;10.580;2023-07-30T04:08:53;15.70;99.90
4279;DHT22;2153;47.744;10.580;2023-07-30T04:11:21;15.60;99.90
4279;DHT22;2153;47.744;10.580;2023-07-30T04:13:48;15.70;99.90
4279;DHT22;2153;47.744;10.580;2023-07-30T04:16:15;15.80;99.90
4279;DHT22;2153;47.744;10.580;2023-07-30T04:18:41;15.90;99.90
4279;DHT22;2153;47.744;10.580;2023-07-30T04:21:08;15.90;99.90
4279;DHT22;2153;47.744;10.580;2023-07-30T04:23:35;16.00;99.90
4279;DHT22;2153;47.744;10.580;2023-07-30T04:26:02;16.20;99.90
4279;DHT22;2153;47.744;10.580;2023-07-30T04:28:30;16.40;99.90
4279;DHT22;2153;47.744;10.580;2023-07-30T04:30:57;16.40;99.90
4279;DHT22;2153;47.744;10.580;2023-07-30T04:33:23;16.50;99.90
4279;DHT22;2153;47.744;10.580;2023-07-30T04:35:51;16.60;99.90
4279;DHT22;2153;47.744;10.580;2023-07-30T04:38:18;16.60;99.90
4279;DHT22;2153;47.744;10.580;2023-07-30T04:40:45;16.60;99.90
4279;DHT22;2153;47.744;10.580;2023-07-30T04:43:11;16.70;99.90
4279;DHT22;2153;47.744;10.580;2023-07-30T04:45:40;16.80;99.90
4279;DHT22;2153;47.744;10.580;2023-07-30T04:48:06;16.80;99.90
4279;DHT22;2153;47.744;10.580;2023-07-30T04:50:33;16.90;99.90
4279;DHT22;2153;47.744;10.580;2023-07-30T04:53:00;16.90;99.90
4279;DHT22;2153;47.744;10.580;2023-07-30T04:55:26;17.00;99.90
4279;DHT22;2153;47.744;10.580;2023-07-30T04:57:53;17.00;99.90
4279;DHT22;2153;47.744;10.580;2023-07-30T05:00:20;17.10;99.90
4279;DHT22;2153;47.744;10.580;2023-07-30T05:02:48;17.20;99.90
4279;DHT22;2153;47.744;10.580;2023-07-30T05:05:15;17.20;99.90
4279;DHT22;2153;47.744;10.580;2023-07-30T05:07:41;17.40;99.90
4279;DHT22;2153;47.744;10.580;2023-07-30T05:10:08;17.40;99.90
4279;DHT22;2153;47.744;10.580;2023-07-30T05:12:36;17.50;99.90
4279;DHT22;2153;47.744;10.580;2023-07-30T05:15:04;17.60;99.90
4279;DHT22;2153;47.744;10.580;2023-07-30T05:17:31;17.70;99.90
4279;DHT22;2153;47.744;10.580;2023-07-30T05:19:59;17.80;99.90
4279;DHT22;2153;47.744;10.580;2023-07-30T05:22:26;18.00;99.90
4279;DHT22;2153;47.744;10.580;2023-07-30T05:24:53;18.10;99.90
4279;DHT22;2153;47.744;10.580;2023-07-30T05:27:19;18.20;99.90
4279;DHT22;2153;47.744;10.580;2023-07-30T05:29:46;18.30;99.90
4279;DHT22;2153;47.744;10.580;2023-07-30T05:32:13;18.40;99.90
4279;DHT22;2153;47.744;10.580;2023-07-30T05:34:39;18.40;99.90
4279;DHT22;2153;47.744;10.580;2023-07-30T05:37:07;18.40;99.90
4279;DHT22;2153;47.744;10.580;2023-07-30T05:39:34;18.60;99.90
4279;DHT22;2153;47.744;10.580;2023-07-30T05:42:01;18.70;99.90
4279;DHT22;2153;47.744;10.580;2023-07-30T05:44:27;18.80;99.90
4279;DHT22;2153;47.744;10.580;2023-07-30T05:46:54;18.90;99.90
4279;DHT22;2153;47.744;10.580;2023-07-30T05:49:21;19.00;99.90
4279;DHT22;2153;47.744;10.580;2023-07-30T05:51:48;19.10;99.90
4279;DHT22;2153;47.744;10.580;2023-07-30T05:54:16;19.10;99.90
4279;DHT22;2153;47.744;10.580;2023-07-30T05:56:43;19.20;99.90
4279;DHT22;2153;47.744;10.580;2023-07-30T05:59:10;19.30;99.90
4279;DHT22;2153;47.744;10.580;2023-07-30T06:01:37;19.40;99.90
4279;DHT22;2153;47.744;10.580;2023-07-30T06:04:04;19.60;99.90
4279;DHT22;2153;47.744;10.580;2023-07-30T06:06:30;19.60;99.90
4279;DHT22;2153;47.744;10.580;2023-07-30T06:08:57;19.60;99.90
4279;DHT22;2153;47.744;10.580;2023-07-30T06:11:25;19.50;99.90
4279;DHT22;2153;47.744;10.580;2023-07-30T06:13:52;19.60;99.90
4279;DHT22;2153;47.744;10.580;2023-07-30T06:16:19;19.70;99.90
4279;DHT22;2153;47.744;10.580;2023-07-30T06:18:46;19.80;99.90
4279;DHT22;2153;47.744;10.580;2023-07-30T06:21:13;20.00;99.90
4279;DHT22;2153;47.744;10.580;2023-07-30T06:23:40;20.00;99.90
4279;DHT22;2153;47.744;10.580;2023-07-30T06:26:07;20.00;99.90
4279;DHT22;2153;47.744;10.580;2023-07-30T06:28:35;20.10;99.90
4279;DHT22;2153;47.744;10.580;2023-07-30T06:31:02;20.00;99.90
4279;DHT22;2153;47.744;10.580;2023-07-30T06:33:28;20.40;99.90
4279;DHT22;2153;47.744;10.580;2023-07-30T06:35:55;20.40;99.90
4279;DHT22;2153;47.744;10.580;2023-07-30T06:38:22;20.20;99.90
4279;DHT22;2153;47.744;10.580;2023-07-30T06:40:49;20.20;99.90
4279;DHT22;2153;47.744;10.580;2023-07-30T06:43:15;20.50;99.90
4279;DHT22;2153;47.744;10.580;2023-07-30T06:45:43;20.60;99.90
4279;DHT22;2153;47.744;10.580;2023-07-30T06:48:10;20.80;99.90
4279;DHT22;2153;47.744;10.580;2023-07-30T06:50:37;21.20;99.90
4279;DHT22;2153;47.744;10.580;2023-07-30T06:53:03;21.10;99.90
4279;DHT22;2153;47.744;10.580;2023-07-30T06:55:30;20.90;99.90
4279;DHT22;2153;47.744;10.580;2023-07-30T06:57:57;20.70;99.90
4279;DHT22;2153;47.744;10.580;2023-07-30T07:00:23;20.90;99.90
4279;DHT22;2153;47.744;10.580;2023-07-30T07:02:51;21.00;99.90
4279;DHT22;2153;47.744;10.580;2023-07-30T07:05:18;21.60;99.90
4279;DHT22;2153;47.744;10.580;2023-07-30T07:07:45;21.80;99.90
4279;DHT22;2153;47.744;10.580;2023-07-30T07:10:12;22.00;99.90
4279;DHT22;2153;47.744;10.580;2023-07-30T07:12:39;21.80;99.90
4279;DHT22;2153;47.744;10.580;2023-07-30T07:15:06;21.90;99.90
4279;DHT22;2153;47.744;10.580;2023-07-30T07:17:34;21.90;99.90
4279;DHT22;2153;47.744;10.580;2023-07-30T07:20:03;21.80;99.90
4279;DHT22;2153;47.744;10.580;2023-07-30T07:22:30;21.70;99.90
4279;DHT22;2153;47.744;10.580;2023-07-30T07:24:57;21.70;99.90
4279;DHT22;2153;47.744;10.580;2023-07-30T07:27:24;21.70;99.90
4279;DHT22;2153;47.744;10.580;2023-07-30T07:29:51;21.30;99.90
4279;DHT22;2153;47.744;10.580;2023-07-30T07:32:18;21.10;99.90
4279;DHT22;2153;47.744;10.580;2023-07-30T07:34:46;21.10;99.90
4279;DHT22;2153;47.744;10.580;2023-07-30T07:37:14;21.20;99.90
4279;DHT22;2153;47.744;10.580;2023-07-30T07:39:42;21.40;99.90
4279;DHT22;2153;47.744;10.580;2023-07-30T07:42:08;21.50;99.90
4279;DHT22;2153;47.744;10.580;2023-07-30T07:44:35;22.00;99.90
4279;DHT22;2153;47.744;10.580;2023-07-30T07:47:02;21.90;99.90
4279;DHT22;2153;47.744;10.580;2023-07-30T07:49:29;21.90;99.90
4279;DHT22;2153;47.744;10.580;2023-07-30T07:51:56;22.40;99.90
4279;DHT22;2153;47.744;10.580;2023-07-30T07:54:24;22.60;99.90
4279;DHT22;2153;47.744;10.580;2023-07-30T07:56:50;22.80;99.90
4279;DHT22;2153;47.744;10.580;2023-07-30T07:59:17;23.00;99.90
4279;DHT22;2153;47.744;10.580;2023-07-30T08:01:44;23.40;99.90
4279;DHT22;2153;47.744;10.580;2023-07-30T08:04:10;23.20;99.90
4279;DHT22;2153;47.744;10.580;2023-07-30T08:06:37;23.40;99.90
4279;DHT22;2153;47.744;10.580;2023-07-30T08:09:04;23.70;99.90
4279;DHT22;2153;47.744;10.580;2023-07-30T08:11:32;23.70;99.90
4279;DHT22;2153;47.744;10.580;2023-07-30T08:13:59;24.00;99.90
4279;DHT22;2153;47.744;10.580;2023-07-30T08:16:26;24.10;99.90
4279;DHT22;2153;47.744;10.580;2023-07-30T08:18:53;23.50;99.90
4279;DHT22;2153;47.744;10.580;2023-07-30T08:21:20;23.50;99.90
4279;DHT22;2153;47.744;10.580;2023-07-30T08:23:47;23.30;99.90
4279;DHT22;2153;47.744;10.580;2023-07-30T08:26:13;23.40;99.90
4279;DHT22;2153;47.744;10.580;2023-07-30T08:28:41;23.70;99.90
4279;DHT22;2153;47.744;10.580;2023-07-30T08:31:08;24.10;99.90
4279;DHT22;2153;47.744;10.580;2023-07-30T08:33:35;24.40;99.90
4279;DHT22;2153;47.744;10.580;2023-07-30T08:36:02;24.10;99.90
4279;DHT22;2153;47.744;10.580;2023-07-30T08:38:29;24.10;99.90
4279;DHT22;2153;47.744;10.580;2023-07-30T08:40:56;24.40;99.90
4279;DHT22;2153;47.744;10.580;2023-07-30T08:43:23;24.30;99.90
4279;DHT22;2153;47.744;10.580;2023-07-30T08:45:51;24.20;99.90
4279;DHT22;2153;47.744;10.580;2023-07-30T08:48:18;24.50;99.90
4279;DHT22;2153;47.744;10.580;2023-07-30T08:50:45;25.00;99.90
4279;DHT22;2153;47.744;10.580;2023-07-30T08:53:14;25.10;99.90
4279;DHT22;2153;47.744;10.580;2023-07-30T08:55:41;24.70;99.90
4279;DHT22;2153;47.744;10.580;2023-07-30T08:58:09;24.60;99.90
4279;DHT22;2153;47.744;10.580;2023-07-30T09:00:37;24.60;99.90
4279;DHT22;2153;47.744;10.580;2023-07-30T09:03:07;24.10;99.90
4279;DHT22;2153;47.744;10.580;2023-07-30T09:05:35;23.60;99.90
4279;DHT22;2153;47.744;10.580;2023-07-30T09:08:01;23.70;99.90
4279;DHT22;2153;47.744;10.580;2023-07-30T09:10:28;23.50;99.90
4279;DHT22;2153;47.744;10.580;2023-07-30T09:12:56;23.60;99.90
4279;DHT22;2153;47.744;10.580;2023-07-30T09:15:31;23.80;99.90
4279;DHT22;2153;47.744;10.580;2023-07-30T09:17:59;23.80;99.90
4279;DHT22;2153;47.744;10.580;2023-07-30T09:20:27;24.00;99.90
4279;DHT22;2153;47.744;10.580;2023-07-30T09:22:56;24.20;99.90
4279;DHT22;2153;47.744;10.580;2023-07-30T09:25:23;24.10;99.90
4279;DHT22;2153;47.744;10.580;2023-07-30T09:27:50;23.70;99.90
4279;DHT22;2153;47.744;10.580;2023-07-30T09:30:22;23.30;99.90
4279;DHT22;2153;47.744;10.580;2023-07-30T09:32:51;23.50;99.90
4279;DHT22;2153;47.744;10.580;2023-07-30T09:35:19;23.30;99.90
4279;DHT22;2153;47.744;10.580;2023-07-30T09:37:47;23.10;99.90
4279;DHT22;2153;47.744;10.580;2023-07-30T09:40:15;23.10;99.90
4279;DHT22;2153;47.744;10.580;2023-07-30T09:42:45;23.90;99.90
4279;DHT22;2153;47.744;10.580;2023-07-30T09:45:17;24.20;99.90
4279;DHT22;2153;47.744;10.580;2023-07-30T09:47:48;24.50;99.90
4279;DHT22;2153;47.744;10.580;2023-07-30T09:50:15;24.90;99.90
4279;DHT22;2153;47.744;10.580;2023-07-30T09:52:42;25.30;99.90
4279;DHT22;2153;47.744;10.580;2023-07-30T09:55:11;25.10;99.90
4279;DHT22;2153;47.744;10.580;2023-07-30T09:57:38;25.10;99.90
4279;DHT22;2153;47.744;10.580;2023-07-30T10:00:07;25.30;99.90
4279;DHT22;2153;47.744;10.580;2023-07-30T10:02:38;25.40;99.90
4279;DHT22;2153;47.744;10.580;2023-07-30T10:05:09;25.40;99.90
4279;DHT22;2153;47.744;10.580;2023-07-30T10:07:39;25.30;99.90
4279;DHT22;2153;47.744;10.580;2023-07-30T10:10:08;25.10;99.90
4279;DHT22;2153;47.744;10.580;2023-07-30T10:12:37;24.90;99.90
4279;DHT22;2153;47.744;10.580;2023-07-30T10:15:06;25.50;99.90
4279;DHT22;2153;47.744;10.580;2023-07-30T10:17:33;25.60;99.90
4279;DHT22;2153;47.744;10.580;2023-07-30T10:20:22;25.60;99.90
4279;DHT22;2153;47.744;10.580;2023-07-30T10:22:52;25.00;99.90
4279;DHT22;2153;47.744;10.580;2023-07-30T10:25:21;24.50;99.90
4279;DHT22;2153;47.744;10.580;2023-07-30T10:27:50;23.80;99.90
4279;DHT22;2153;47.744;10.580;2023-07-30T10:30:18;23.70;99.90
4279;DHT22;2153;47.744;10.580;2023-07-30T10:33:00;23.70;99.90
4279;DHT22;2153;47.744;10.580;2023-07-30T10:35:38;23.50;99.90
4279;DHT22;2153;47.744;10.580;2023-07-30T10:38:16;23.20;99.90
4279;DHT22;2153;47.744;10.580;2023-07-30T10:41:02;22.90;99.90
4279;DHT22;2153;47.744;10.580;2023-07-30T10:43:31;22.70;99.90
4279;DHT22;2153;47.744;10.580;2023-07-30T10:46:00;23.10;99.90
4279;DHT22;2153;47.744;10.580;2023-07-30T10:48:31;24.00;99.90
4279;DHT22;2153;47.744;10.580;2023-07-30T10:51:00;24.70;99.90
4279;DHT22;2153;47.744;10.580;2023-07-30T10:53:28;25.20;99.90
4279;DHT22;2153;47.744;10.580;2023-07-30T10:55:58;25.40;99.90
4279;DHT22;2153;47.744;10.580;2023-07-30T10:58:26;25.40;99.90
4279;DHT22;2153;47.744;10.580;2023-07-30T11:00:54;24.70;99.90
4279;DHT22;2153;47.744;10.580;2023-07-30T11:03:24;24.50;99.90
4279;DHT22;2153;47.744;10.580;2023-07-30T11:05:52;24.90;99.90
4279;DHT22;2153;47.744;10.580;2023-07-30T11:08:19;25.10;99.90
4279;DHT22;2153;47.744;10.580;2023-07-30T11:10:46;25.50;99.90
4279;DHT22;2153;47.744;10.580;2023-07-30T11:13:14;25.30;99.90
4279;DHT22;2153;47.744;10.580;2023-07-30T11:15:41;25.10;99.90
4279;DHT22;2153;47.744;10.580;2023-07-30T11:18:10;24.40;99.90
4279;DHT22;2153;47.744;10.580;2023-07-30T11:20:37;23.60;99.90
4279;DHT22;2153;47.744;10.580;2023-07-30T11:23:17;23.00;99.90
4279;DHT22;2153;47.744;10.580;2023-07-30T11:25:46;22.40;99.90
4279;DHT22;2153;47.744;10.580;2023-07-30T11:28:13;22.00;99.90
4279;DHT22;2153;47.744;10.580;2023-07-30T11:30:40;21.90;99.90
4279;DHT22;2153;47.744;10.580;2023-07-30T11:33:07;22.10;99.90
4279;DHT22;2153;47.744;10.580;2023-07-30T11:35:35;22.20;99.90
4279;DHT22;2153;47.744;10.580;2023-07-30T11:38:02;22.20;99.90
4279;DHT22;2153;47.744;10.580;2023-07-30T11:40:29;22.30;99.90
4279;DHT22;2153;47.744;10.580;2023-07-30T11:42:55;22.20;99.90
4279;DHT22;2153;47.744;10.580;2023-07-30T11:45:23;22.40;99.90
4279;DHT22;2153;47.744;10.580;2023-07-30T11:47:51;22.40;99.90
4279;DHT22;2153;47.744;10.580;2023-07-30T11:50:18;22.40;99.90
4279;DHT22;2153;47.744;10.580;2023-07-30T11:52:54;22.30;99.90
4279;DHT22;2153;47.744;10.580;2023-07-30T11:55:21;22.50;99.90
4279;DHT22;2153;47.744;10.580;2023-07-30T11:57:48;22.10;99.90
4279;DHT22;2153;47.744;10.580;2023-07-30T12:00:15;21.90;99.90
4279;DHT22;2153;47.744;10.580;2023-07-30T12:02:42;21.70;99.90
4279;DHT22;2153;47.744;10.580;2023-07-30T12:05:10;21.80;99.90
4279;DHT22;2153;47.744;10.580;2023-07-30T12:07:40;22.00;99.90
4279;DHT22;2153;47.744;10.580;2023-07-30T12:10:10;22.30;99.90
4279;DHT22;2153;47.744;10.580;2023-07-30T12:12:43;23.00;99.90
4279;DHT22;2153;47.744;10.580;2023-07-30T12:15:11;23.30;99.90
4279;DHT22;2153;47.744;10.580;2023-07-30T12:17:38;23.30;99.90
4279;DHT22;2153;47.744;10.580;2023-07-30T12:20:06;23.00;99.90
4279;DHT22;2153;47.744;10.580;2023-07-30T12:22:33;23.10;99.90
4279;DHT22;2153;47.744;10.580;2023-07-30T12:25:01;22.90;99.90
4279;DHT22;2153;47.744;10.580;2023-07-30T12:27:29;22.70;99.90
4279;DHT22;2153;47.744;10.580;2023-07-30T12:29:56;22.80;99.90
4279;DHT22;2153;47.744;10.580;2023-07-30T12:32:22;23.10;99.90
4279;DHT22;2153;47.744;10.580;2023-07-30T12:34:50;23.70;99.90
4279;DHT22;2153;47.744;10.580;2023-07-30T12:37:16;24.30;99.90
4279;DHT22;2153;47.744;10.580;2023-07-30T12:39:43;24.50;99.90
4279;DHT22;2153;47.744;10.580;2023-07-30T12:42:10;24.10;99.90
4279;DHT22;2153;47.744;10.580;2023-07-30T12:44:38;23.90;99.90
4279;DHT22;2153;47.744;10.580;2023-07-30T12:47:05;24.10;99.90
4279;DHT22;2153;47.744;10.580;2023-07-30T12:49:31;24.10;99.90
4279;DHT22;2153;47.744;10.580;2023-07-30T12:51:58;24.70;99.90
4279;DHT22;2153;47.744;10.580;2023-07-30T12:54:25;24.70;99.90
4279;DHT22;2153;47.744;10.580;2023-07-30T12:56:52;24.70;99.90
4279;DHT22;2153;47.744;10.580;2023-07-30T12:59:18;25.00;99.90
4279;DHT22;2153;47.744;10.580;2023-07-30T13:01:46;24.80;99.90
4279;DHT22;2153;47.744;10.580;2023-07-30T13:04:13;25.00;99.90
4279;DHT22;2153;47.744;10.580;2023-07-30T13:06:40;25.20;99.90
4279;DHT22;2153;47.744;10.580;2023-07-30T13:09:06;24.50;99.90
4279;DHT22;2153;47.744;10.580;2023-07-30T13:11:33;24.10;99.90
4279;DHT22;2153;47.744;10.580;2023-07-30T13:14:00;23.80;99.90
4279;DHT22;2153;47.744;10.580;2023-07-30T13:16:27;23.60;99.90
4279;DHT22;2153;47.744;10.580;2023-07-30T13:18:54;23.80;99.90
4279;DHT22;2153;47.744;10.580;2023-07-30T13:21:22;24.20;99.90
4279;DHT22;2153;47.744;10.580;2023-07-30T13:23:49;23.80;99.90
4279;DHT22;2153;47.744;10.580;2023-07-30T13:26:16;23.50;99.90
4279;DHT22;2153;47.744;10.580;2023-07-30T13:28:44;23.10;99.90
4279;DHT22;2153;47.744;10.580;2023-07-30T13:31:10;22.70;99.90
4279;DHT22;2153;47.744;10.580;2023-07-30T13:33:37;22.40;99.90
4279;DHT22;2153;47.744;10.580;2023-07-30T13:36:05;22.60;99.90
4279;DHT22;2153;47.744;10.580;2023-07-30T13:38:34;23.10;99.90
4279;DHT22;2153;47.744;10.580;2023-07-30T13:41:00;23.30;99.90
4279;DHT22;2153;47.744;10.580;2023-07-30T13:43:28;23.20;99.90
4279;DHT22;2153;47.744;10.580;2023-07-30T13:45:54;23.00;99.90
4279;DHT22;2153;47.744;10.580;2023-07-30T13:48:22;22.80;99.90
4279;DHT22;2153;47.744;10.580;2023-07-30T13:50:49;22.90;99.90
4279;DHT22;2153;47.744;10.580;2023-07-30T13:53:17;22.60;99.90
4279;DHT22;2153;47.744;10.580;2023-07-30T13:55:43;22.40;99.90
4279;DHT22;2153;47.744;10.580;2023-07-30T13:58:10;22.10;99.90
4279;DHT22;2153;47.744;10.580;2023-07-30T14:00:41;21.90;99.90
4279;DHT22;2153;47.744;10.580;2023-07-30T14:03:08;21.70;99.90
4279;DHT22;2153;47.744;10.580;2023-07-30T14:05:35;21.80;99.90
4279;DHT22;2153;47.744;10.580;2023-07-30T14:08:01;21.90;99.90
4279;DHT22;2153;47.744;10.580;2023-07-30T14:10:29;22.30;99.90
4279;DHT22;2153;47.744;10.580;2023-07-30T14:12:56;22.50;99.90
4279;DHT22;2153;47.744;10.580;2023-07-30T14:15:23;22.20;99.90
4279;DHT22;2153;47.744;10.580;2023-07-30T14:17:49;22.60;99.90
4279;DHT22;2153;47.744;10.580;2023-07-30T14:20:17;23.00;99.90
4279;DHT22;2153;47.744;10.580;2023-07-30T14:22:44;23.10;99.90
4279;DHT22;2153;47.744;10.580;2023-07-30T14:25:10;23.30;99.90
4279;DHT22;2153;47.744;10.580;2023-07-30T14:27:38;22.90;99.90
4279;DHT22;2153;47.744;10.580;2023-07-30T14:30:06;22.70;99.90
4279;DHT22;2153;47.744;10.580;2023-07-30T14:32:33;23.20;99.90
4279;DHT22;2153;47.744;10.580;2023-07-30T14:35:00;23.70;99.90
4279;DHT22;2153;47.744;10.580;2023-07-30T14:37:27;23.50;99.90
4279;DHT22;2153;47.744;10.580;2023-07-30T14:39:53;23.90;99.90
4279;DHT22;2153;47.744;10.580;2023-07-30T14:42:20;24.10;99.90
4279;DHT22;2153;47.744;10.580;2023-07-30T14:44:48;24.20;99.90
4279;DHT22;2153;47.744;10.580;2023-07-30T14:47:15;24.30;99.90
4279;DHT22;2153;47.744;10.580;2023-07-30T14:49:42;24.10;99.90
4279;DHT22;2153;47.744;10.580;2023-07-30T14:52:09;23.60;99.90
4279;DHT22;2153;47.744;10.580;2023-07-30T14:54:35;23.20;99.90
4279;DHT22;2153;47.744;10.580;2023-07-30T14:57:02;22.90;99.90
4279;DHT22;2153;47.744;10.580;2023-07-30T14:59:29;22.70;99.90
4279;DHT22;2153;47.744;10.580;2023-07-30T15:01:57;22.60;99.90
4279;DHT22;2153;47.744;10.580;2023-07-30T15:04:24;23.00;99.90
4279;DHT22;2153;47.744;10.580;2023-07-30T15:06:51;23.10;99.90
4279;DHT22;2153;47.744;10.580;2023-07-30T15:09:17;23.20;99.90
4279;DHT22;2153;47.744;10.580;2023-07-30T15:11:44;23.50;99.90
4279;DHT22;2153;47.744;10.580;2023-07-30T15:14:11;23.70;99.90
4279;DHT22;2153;47.744;10.580;2023-07-30T15:16:37;23.90;99.90
4279;DHT22;2153;47.744;10.580;2023-07-30T15:19:05;23.90;99.10
4279;DHT22;2153;47.744;10.580;2023-07-30T15:21:32;23.90;99.90
4279;DHT22;2153;47.744;10.580;2023-07-30T15:24:00;24.10;99.90
4279;DHT22;2153;47.744;10.580;2023-07-30T15:26:27;24.00;89.10
4279;DHT22;2153;47.744;10.580;2023-07-30T15:28:54;24.00;96.70
4279;DHT22;2153;47.744;10.580;2023-07-30T15:31:21;23.90;93.90
4279;DHT22;2153;47.744;10.580;2023-07-30T15:33:47;23.90;96.00
4279;DHT22;2153;47.744;10.580;2023-07-30T15:36:15;23.60;78.60
4279;DHT22;2153;47.744;10.580;2023-07-30T15:38:42;23.50;77.30
4279;DHT22;2153;47.744;10.580;2023-07-30T15:41:09;23.30;76.80
4279;DHT22;2153;47.744;10.580;2023-07-30T15:43:35;23.20;95.30
4279;DHT22;2153;47.744;10.580;2023-07-30T15:46:06;23.00;94.70